createdAt,value
2022-12-25T00:01:24.114Z,2.78
2022-12-25T00:03:52.308Z,2.81
2022-12-25T00:06:20.402Z,2.79
2022-12-25T00:08:47.799Z,2.78
2022-12-25T00:11:17.547Z,2.75
2022-12-25T00:13:44.765Z,2.68
2022-12-25T00:16:19.977Z,2.65
2022-12-25T00:18:48.036Z,2.63
2022-12-25T00:21:15.950Z,2.61
2022-12-25T00:23:43.593Z,2.61
2022-12-25T00:26:17.987Z,2.61
2022-12-25T00:28:45.625Z,2.63
2022-12-25T00:31:15.869Z,2.64
2022-12-25T00:33:45.461Z,2.66
2022-12-25T00:36:15.396Z,2.67
2022-12-25T00:38:43.426Z,2.67
2022-12-25T00:41:16.301Z,2.67
2022-12-25T00:43:43.688Z,2.69
2022-12-25T00:46:12.896Z,2.70
2022-12-25T00:48:40.746Z,2.73
2022-12-25T00:51:11.306Z,2.72
2022-12-25T00:53:39.000Z,2.70
2022-12-25T00:56:07.799Z,2.68
2022-12-25T00:58:35.623Z,2.70
2022-12-25T01:01:03.685Z,2.74
2022-12-25T01:03:31.399Z,2.76
2022-12-25T01:06:01.219Z,2.80
2022-12-25T01:08:31.024Z,2.79
2022-12-25T01:11:00.231Z,2.78
2022-12-25T01:13:29.161Z,2.79
2022-12-25T01:15:56.367Z,2.81
2022-12-25T01:18:24.986Z,2.82
2022-12-25T01:20:52.474Z,2.83
2022-12-25T01:23:19.700Z,2.83
2022-12-25T01:25:46.801Z,2.84
2022-12-25T01:28:14.107Z,2.83
2022-12-25T01:30:48.508Z,2.86
2022-12-25T01:33:15.756Z,2.89
2022-12-25T01:35:42.897Z,2.91
2022-12-25T01:38:10.053Z,2.92
2022-12-25T01:40:37.187Z,2.95
2022-12-25T01:43:05.230Z,2.98
2022-12-25T01:45:42.451Z,3.00
2022-12-25T01:48:14.876Z,3.01
2022-12-25T01:50:46.343Z,3.01
2022-12-25T01:53:14.372Z,3.01
2022-12-25T01:55:43.784Z,2.99
2022-12-25T01:58:11.033Z,2.99
2022-12-25T02:00:38.232Z,2.98
2022-12-25T02:03:06.034Z,2.99
2022-12-25T02:05:35.063Z,3.01
2022-12-25T02:08:08.430Z,3.04
2022-12-25T02:10:35.827Z,3.07
2022-12-25T02:13:03.285Z,3.11
2022-12-25T02:15:44.699Z,3.12
2022-12-25T02:18:34.326Z,3.12
2022-12-25T02:21:23.304Z,3.13
2022-12-25T02:24:01.500Z,3.13
2022-12-25T02:27:03.027Z,3.11
2022-12-25T02:29:33.049Z,3.10
2022-12-25T02:32:14.936Z,3.08
2022-12-25T02:34:53.026Z,3.06
2022-12-25T02:37:29.569Z,3.03
2022-12-25T02:40:06.858Z,3.02
2022-12-25T02:43:02.635Z,3.04
2022-12-25T02:45:59.722Z,3.07
2022-12-25T02:48:50.011Z,3.11
2022-12-25T02:51:38.698Z,3.11
2022-12-25T02:54:31.102Z,3.09
2022-12-25T02:57:21.300Z,3.10
2022-12-25T03:00:09.535Z,3.09
2022-12-25T03:02:59.089Z,3.08
2022-12-25T03:05:46.358Z,3.08
2022-12-25T03:08:19.333Z,3.05
2022-12-25T03:11:14.324Z,3.06
2022-12-25T03:13:45.697Z,3.06
2022-12-25T03:16:32.478Z,3.08
2022-12-25T03:19:00.327Z,3.10
2022-12-25T03:21:59.709Z,3.12
2022-12-25T03:24:46.499Z,3.15
2022-12-25T03:27:13.597Z,3.13
2022-12-25T03:29:59.689Z,3.13
2022-12-25T03:32:39.100Z,3.11
2022-12-25T03:35:25.723Z,3.07
2022-12-25T03:38:46.617Z,3.05
2022-12-25T03:41:51.629Z,3.03
2022-12-25T03:44:46.637Z,3.05
2022-12-25T03:47:57.732Z,3.07
2022-12-25T03:50:56.051Z,3.07
2022-12-25T03:53:54.591Z,3.08
2022-12-25T03:56:41.423Z,3.07
2022-12-25T03:59:27.392Z,3.06
2022-12-25T04:02:13.379Z,3.03
2022-12-25T04:04:59.154Z,2.99
2022-12-25T04:07:44.880Z,2.99
2022-12-25T04:10:30.622Z,2.97
2022-12-25T04:13:16.567Z,2.94
2022-12-25T04:16:02.291Z,2.97
2022-12-25T04:18:48.318Z,3.01
2022-12-25T04:21:34.587Z,3.05
2022-12-25T04:24:20.323Z,3.09
2022-12-25T04:27:06.014Z,3.13
2022-12-25T04:29:51.497Z,3.15
2022-12-25T04:32:37.210Z,3.15
2022-12-25T04:35:23.441Z,3.16
2022-12-25T04:37:50.644Z,3.16
2022-12-25T04:40:18.029Z,3.17
2022-12-25T04:42:45.106Z,3.15
2022-12-25T04:45:12.383Z,3.14
2022-12-25T04:47:39.516Z,3.13
2022-12-25T04:50:07.401Z,3.14
2022-12-25T04:52:41.398Z,3.16
2022-12-25T04:55:10.513Z,3.18
2022-12-25T04:57:38.285Z,3.20
2022-12-25T05:00:06.578Z,3.20
2022-12-25T05:02:33.882Z,3.23
2022-12-25T05:05:01.405Z,3.24
2022-12-25T05:07:28.726Z,3.22
2022-12-25T05:09:55.775Z,3.21
2022-12-25T05:12:22.918Z,3.17
2022-12-25T05:14:50.580Z,3.15
2022-12-25T05:17:17.731Z,3.14
2022-12-25T05:19:44.942Z,3.14
2022-12-25T05:22:12.009Z,3.16
2022-12-25T05:24:39.132Z,3.17
2022-12-25T05:27:06.207Z,3.20
2022-12-25T05:29:33.333Z,3.22
2022-12-25T05:32:00.557Z,3.23
2022-12-25T05:34:27.689Z,3.22
2022-12-25T05:36:56.593Z,3.21
2022-12-25T05:39:24.542Z,3.21
2022-12-25T05:41:51.950Z,3.19
2022-12-25T05:44:19.159Z,3.17
2022-12-25T05:46:46.423Z,3.17
2022-12-25T05:49:13.684Z,3.16
2022-12-25T05:51:40.808Z,3.15
2022-12-25T05:54:08.118Z,3.15
2022-12-25T05:56:35.342Z,3.15
2022-12-25T05:59:02.542Z,3.15
2022-12-25T06:01:29.756Z,3.14
2022-12-25T06:03:57.711Z,3.15
2022-12-25T06:06:25.027Z,3.15
2022-12-25T06:08:55.148Z,3.12
2022-12-25T06:11:22.620Z,3.10
2022-12-25T06:13:51.979Z,3.10
2022-12-25T06:16:20.180Z,3.09
2022-12-25T06:18:52.128Z,3.10
2022-12-25T06:21:19.454Z,3.12
2022-12-25T06:23:46.769Z,3.14
2022-12-25T06:26:17.377Z,3.14
2022-12-25T06:28:45.678Z,3.17
2022-12-25T06:31:16.067Z,3.18
2022-12-25T06:33:43.959Z,3.17
2022-12-25T06:36:15.730Z,3.18
2022-12-25T06:38:43.009Z,3.18
2022-12-25T06:41:13.005Z,3.19
2022-12-25T06:43:40.365Z,3.15
2022-12-25T06:46:11.234Z,3.11
2022-12-25T06:48:40.354Z,3.12
2022-12-25T06:51:08.068Z,3.14
2022-12-25T06:53:40.206Z,3.16
2022-12-25T06:56:15.775Z,3.19
2022-12-25T06:58:51.271Z,3.23
2022-12-25T07:01:32.466Z,3.24
2022-12-25T07:04:11.580Z,3.24
2022-12-25T07:06:38.746Z,3.20
2022-12-25T07:09:05.922Z,3.19
2022-12-25T07:11:33.168Z,3.19
2022-12-25T07:14:00.168Z,3.17
2022-12-25T07:16:27.346Z,3.13
2022-12-25T07:18:54.586Z,3.08
2022-12-25T07:21:22.199Z,3.05
2022-12-25T07:23:50.396Z,3.07
2022-12-25T07:26:17.683Z,3.09
2022-12-25T07:28:45.108Z,3.13
2022-12-25T07:31:17.268Z,3.16
2022-12-25T07:33:45.477Z,3.18
2022-12-25T07:36:14.003Z,3.21
2022-12-25T07:38:44.419Z,3.21
2022-12-25T07:41:13.555Z,3.20
2022-12-25T07:43:41.020Z,3.18
2022-12-25T07:46:08.473Z,3.19
2022-12-25T07:48:36.563Z,3.23
2022-12-25T07:51:06.765Z,3.27
2022-12-25T07:53:35.365Z,3.28
2022-12-25T07:56:07.461Z,3.30
2022-12-25T07:58:35.284Z,3.31
2022-12-25T08:01:09.023Z,3.31
2022-12-25T08:03:37.105Z,3.30
2022-12-25T08:06:07.123Z,3.28
2022-12-25T08:08:34.925Z,3.25
2022-12-25T08:11:02.317Z,3.17
2022-12-25T08:13:34.015Z,3.11
2022-12-25T08:16:03.236Z,3.08
2022-12-25T08:18:31.886Z,3.10
2022-12-25T08:21:04.208Z,3.11
2022-12-25T08:23:31.471Z,3.11
2022-12-25T08:26:05.407Z,3.10
2022-12-25T08:28:33.731Z,3.12
2022-12-25T08:31:06.939Z,3.12
2022-12-25T08:33:35.879Z,3.12
2022-12-25T08:36:08.002Z,3.11
2022-12-25T08:38:35.432Z,3.11
2022-12-25T08:41:02.864Z,3.11
2022-12-25T08:43:30.435Z,3.13
2022-12-25T08:45:57.680Z,3.17
2022-12-25T08:48:24.894Z,3.21
2022-12-25T08:50:53.799Z,3.23
2022-12-25T08:53:21.162Z,3.25
2022-12-25T08:55:48.448Z,3.28
2022-12-25T08:58:16.633Z,3.30
2022-12-25T09:00:43.907Z,3.32
2022-12-25T09:03:11.158Z,3.33
2022-12-25T09:05:38.639Z,3.34
2022-12-25T09:08:05.934Z,3.36
2022-12-25T09:10:37.050Z,3.40
2022-12-25T09:13:05.163Z,3.45
2022-12-25T09:15:32.523Z,3.50
2022-12-25T09:17:59.743Z,3.56
2022-12-25T09:20:26.916Z,3.60
2022-12-25T09:22:53.982Z,3.63
2022-12-25T09:25:21.162Z,3.65
2022-12-25T09:27:48.263Z,3.66
2022-12-25T09:30:15.596Z,3.65
2022-12-25T09:32:42.750Z,3.63
2022-12-25T09:35:10.227Z,3.61
2022-12-25T09:37:37.300Z,3.60
2022-12-25T09:40:05.208Z,3.59
2022-12-25T09:42:34.566Z,3.60
2022-12-25T09:45:05.925Z,3.58
2022-12-25T09:47:38.576Z,3.59
2022-12-25T09:50:14.148Z,3.65
2022-12-25T09:52:46.561Z,3.69
2022-12-25T09:55:24.303Z,3.72
2022-12-25T09:57:57.548Z,3.71
2022-12-25T10:00:40.950Z,3.72
2022-12-25T10:03:25.179Z,3.74
2022-12-25T10:06:01.409Z,3.76
2022-12-25T10:08:53.414Z,3.80
2022-12-25T10:11:52.900Z,3.83
2022-12-25T10:14:31.144Z,3.86
2022-12-25T10:16:58.507Z,3.81
2022-12-25T10:19:51.982Z,3.76
2022-12-25T10:22:42.998Z,3.77
2022-12-25T10:25:21.685Z,3.81
2022-12-25T10:28:05.714Z,3.84
2022-12-25T10:30:32.841Z,3.87
2022-12-25T10:33:00.647Z,3.88
2022-12-25T10:35:29.887Z,3.92
2022-12-25T10:38:16.508Z,3.95
2022-12-25T10:41:14.153Z,3.98
2022-12-25T10:43:52.180Z,4.03
2022-12-25T10:46:21.182Z,4.08
2022-12-25T10:48:57.496Z,4.10
2022-12-25T10:51:33.091Z,4.11
2022-12-25T10:54:01.683Z,4.14
2022-12-25T10:56:28.985Z,4.15
2022-12-25T10:59:06.990Z,4.14
2022-12-25T11:01:34.125Z,4.14
2022-12-25T11:04:01.851Z,4.15
2022-12-25T11:06:32.738Z,4.15
2022-12-25T11:09:02.342Z,4.15
2022-12-25T11:11:31.464Z,4.17
2022-12-25T11:14:01.539Z,4.19
2022-12-25T11:16:33.941Z,4.20
2022-12-25T11:19:01.210Z,4.21
2022-12-25T11:21:34.208Z,4.22
2022-12-25T11:24:03.430Z,4.23
2022-12-25T11:26:37.334Z,4.21
2022-12-25T11:29:17.766Z,4.20
2022-12-25T11:31:47.620Z,4.17
2022-12-25T11:34:35.566Z,4.14
2022-12-25T11:37:04.545Z,4.16
2022-12-25T11:39:37.627Z,4.19
2022-12-25T11:42:16.399Z,4.23
2022-12-25T11:45:03.723Z,4.25
2022-12-25T11:47:33.776Z,4.28
2022-12-25T11:50:27.599Z,4.28
2022-12-25T11:52:56.122Z,4.27
2022-12-25T11:55:36.801Z,4.24
2022-12-25T11:58:16.130Z,4.19
2022-12-25T12:00:46.724Z,4.16
2022-12-25T12:03:19.802Z,4.12
2022-12-25T12:05:51.382Z,4.12
2022-12-25T12:08:18.480Z,4.14
2022-12-25T12:11:16.747Z,4.14
2022-12-25T12:14:10.873Z,4.13
2022-12-25T12:16:38.345Z,4.17
2022-12-25T12:19:24.810Z,4.20
2022-12-25T12:21:54.744Z,4.20
2022-12-25T12:24:24.388Z,4.21
2022-12-25T12:27:07.142Z,4.23
2022-12-25T12:29:43.257Z,4.21
2022-12-25T12:32:44.660Z,4.18
2022-12-25T12:35:19.471Z,4.12
2022-12-25T12:37:51.556Z,4.08
2022-12-25T12:40:24.214Z,4.10
2022-12-25T12:42:52.543Z,4.09
2022-12-25T12:45:25.687Z,4.09
2022-12-25T12:47:53.525Z,4.11
2022-12-25T12:50:36.720Z,4.14
2022-12-25T12:53:34.188Z,4.13
2022-12-25T12:56:17.873Z,4.15
2022-12-25T12:58:51.115Z,4.17
2022-12-25T13:01:27.926Z,4.19
2022-12-25T13:04:14.119Z,4.19
2022-12-25T13:06:45.153Z,4.20
2022-12-25T13:09:18.527Z,4.21
2022-12-25T13:11:45.939Z,4.24
2022-12-25T13:14:20.181Z,4.27
2022-12-25T13:16:50.054Z,4.33
2022-12-25T13:19:27.026Z,4.37
2022-12-25T13:21:58.065Z,4.39
2022-12-25T13:24:27.727Z,4.40
2022-12-25T13:26:55.214Z,4.40
2022-12-25T13:29:32.618Z,4.40
2022-12-25T13:32:02.169Z,4.41
2022-12-25T13:34:41.174Z,4.41
2022-12-25T13:37:09.897Z,4.39
2022-12-25T13:39:46.218Z,4.39
2022-12-25T13:42:20.786Z,4.38
2022-12-25T13:45:14.294Z,4.38
2022-12-25T13:47:51.387Z,4.41
2022-12-25T13:50:30.672Z,4.42
2022-12-25T13:53:10.347Z,4.43
2022-12-25T13:55:37.979Z,4.43
2022-12-25T13:58:07.869Z,4.42
2022-12-25T14:00:44.337Z,4.41
2022-12-25T14:03:22.142Z,4.40
2022-12-25T14:06:16.912Z,4.39
2022-12-25T14:08:44.689Z,4.37
2022-12-25T14:11:16.083Z,4.35
2022-12-25T14:13:45.892Z,4.36
2022-12-25T14:16:17.156Z,4.37
2022-12-25T14:19:00.339Z,4.38
2022-12-25T14:21:35.124Z,4.41
2022-12-25T14:24:02.937Z,4.43
2022-12-25T14:26:33.462Z,4.46
2022-12-25T14:29:16.506Z,4.46
2022-12-25T14:31:46.258Z,4.47
2022-12-25T14:34:20.902Z,4.48
2022-12-25T14:36:48.896Z,4.47
2022-12-25T14:39:31.594Z,4.46
2022-12-25T14:41:59.266Z,4.44
2022-12-25T14:44:29.574Z,4.39
2022-12-25T14:47:11.394Z,4.38
2022-12-25T14:49:39.407Z,4.41
2022-12-25T14:52:42.387Z,4.39
2022-12-25T14:55:20.439Z,4.40
2022-12-25T14:57:50.017Z,4.42
2022-12-25T15:00:31.920Z,4.45
2022-12-25T15:03:00.475Z,4.47
2022-12-25T15:05:30.747Z,4.49
2022-12-25T15:08:03.897Z,4.49
2022-12-25T15:13:18.597Z,4.48
2022-12-25T15:15:58.775Z,4.44
2022-12-25T15:18:30.949Z,4.45
2022-12-25T15:20:58.399Z,4.47
2022-12-25T15:23:25.705Z,4.49
2022-12-25T15:25:53.095Z,4.51
2022-12-25T15:28:20.912Z,4.52
2022-12-25T15:30:49.842Z,4.53
2022-12-25T15:33:19.342Z,4.54
2022-12-25T15:35:46.922Z,4.56
2022-12-25T15:38:14.252Z,4.53
2022-12-25T15:40:42.137Z,4.51
2022-12-25T15:43:38.886Z,4.48
2022-12-25T15:46:01.303Z,4.44
2022-12-25T15:48:28.478Z,4.44
2022-12-25T15:50:55.695Z,4.45
2022-12-25T15:53:22.825Z,4.48
2022-12-25T15:55:49.922Z,4.47
2022-12-25T15:58:17.055Z,4.46
2022-12-25T16:00:44.152Z,4.46
2022-12-25T16:03:11.376Z,4.41
2022-12-25T16:05:38.674Z,4.40
2022-12-25T16:08:05.952Z,4.40
2022-12-25T16:10:38.382Z,4.41
2022-12-25T16:13:06.427Z,4.41
2022-12-25T16:15:33.603Z,4.39
2022-12-25T16:18:00.774Z,4.40
2022-12-25T16:20:27.963Z,4.42
2022-12-25T16:22:55.106Z,4.44
2022-12-25T16:25:22.380Z,4.45
2022-12-25T16:27:49.789Z,4.46
2022-12-25T16:30:18.341Z,4.46
2022-12-25T16:32:49.500Z,4.47
2022-12-25T16:35:17.920Z,4.46
2022-12-25T16:37:45.044Z,4.46
2022-12-25T16:40:12.413Z,4.43
2022-12-25T16:42:39.681Z,4.40
2022-12-25T16:45:07.423Z,4.40
2022-12-25T16:47:34.828Z,4.40
2022-12-25T16:50:03.698Z,4.40
2022-12-25T16:52:34.808Z,4.39
2022-12-25T16:55:03.403Z,4.39
2022-12-25T16:57:32.649Z,4.38
2022-12-25T17:00:00.665Z,4.36
2022-12-25T17:02:28.116Z,4.35
2022-12-25T17:04:55.451Z,4.33
2022-12-25T17:07:22.504Z,4.30
2022-12-25T17:09:49.988Z,4.31
2022-12-25T17:12:17.521Z,4.31
2022-12-25T17:14:44.709Z,4.31
2022-12-25T17:17:11.874Z,4.33
2022-12-25T17:19:39.284Z,4.36
2022-12-25T17:22:07.547Z,4.41
2022-12-25T17:24:37.400Z,4.46
2022-12-25T17:27:08.668Z,4.51
2022-12-25T17:29:38.453Z,4.54
2022-12-25T17:32:08.217Z,4.55
2022-12-25T17:34:35.599Z,4.54
2022-12-25T17:37:02.819Z,4.51
2022-12-25T17:39:30.052Z,4.50
2022-12-25T17:41:57.238Z,4.50
2022-12-25T17:44:24.374Z,4.52
2022-12-25T17:46:52.159Z,4.55
2022-12-25T17:49:21.513Z,4.57
2022-12-25T17:51:49.151Z,4.60
2022-12-25T17:54:16.285Z,4.63
2022-12-25T17:56:43.396Z,4.65
2022-12-25T17:59:18.217Z,4.67
2022-12-25T18:01:47.179Z,4.68
2022-12-25T18:04:14.512Z,4.67
2022-12-25T18:06:41.832Z,4.67
2022-12-25T18:09:11.264Z,4.64
2022-12-25T18:11:41.100Z,4.62
2022-12-25T18:14:11.642Z,4.62
2022-12-25T18:16:42.131Z,4.61
2022-12-25T18:19:11.080Z,4.61
2022-12-25T18:21:38.414Z,4.62
2022-12-25T18:24:07.513Z,4.65
2022-12-25T18:26:35.261Z,4.67
2022-12-25T18:29:03.099Z,4.69
2022-12-25T18:31:33.032Z,4.70
2022-12-25T18:34:00.862Z,4.70
2022-12-25T18:36:29.621Z,4.70
2022-12-25T18:38:58.013Z,4.68
2022-12-25T18:41:25.385Z,4.65
2022-12-25T18:43:55.672Z,4.64
2022-12-25T18:46:25.899Z,4.64
2022-12-25T18:48:55.126Z,4.65
2022-12-25T18:51:22.450Z,4.66
2022-12-25T18:53:49.980Z,4.67
2022-12-25T18:56:18.549Z,4.68
2022-12-25T18:58:46.917Z,4.67
2022-12-25T19:01:22.475Z,4.67
2022-12-25T19:03:49.924Z,4.67
2022-12-25T19:06:25.393Z,4.67
2022-12-25T19:08:53.009Z,4.67
2022-12-25T19:11:21.002Z,4.67
2022-12-25T19:13:48.388Z,4.68
2022-12-25T19:16:17.427Z,4.68
2022-12-25T19:18:45.938Z,4.69
2022-12-25T19:21:13.109Z,4.70
2022-12-25T19:23:40.492Z,4.70
2022-12-25T19:26:09.764Z,4.69
2022-12-25T19:28:38.048Z,4.69
2022-12-25T19:31:07.691Z,4.67
2022-12-25T19:33:37.006Z,4.65
2022-12-25T19:36:10.379Z,4.65
2022-12-25T19:38:37.939Z,4.64
2022-12-25T19:41:14.460Z,4.63
2022-12-25T19:43:42.587Z,4.62
2022-12-25T19:46:19.025Z,4.62
2022-12-25T19:48:46.740Z,4.62
2022-12-25T19:51:18.999Z,4.62
2022-12-25T19:53:46.914Z,4.56
2022-12-25T19:56:15.077Z,4.54
2022-12-25T19:58:42.434Z,4.52
2022-12-25T20:01:13.620Z,4.50
2022-12-25T20:03:46.656Z,4.51
2022-12-25T20:06:18.965Z,4.54
2022-12-25T20:08:57.991Z,4.58
2022-12-25T20:11:27.976Z,4.62
2022-12-25T20:13:56.113Z,4.65
2022-12-25T20:16:24.188Z,4.66
2022-12-25T20:18:51.906Z,4.67
2022-12-25T20:21:22.192Z,4.66
2022-12-25T20:23:51.771Z,4.64
2022-12-25T20:26:22.780Z,4.65
2022-12-25T20:28:50.325Z,4.67
2022-12-25T20:31:23.394Z,4.68
2022-12-25T20:33:50.951Z,4.68
2022-12-25T20:36:19.039Z,4.70
2022-12-25T20:38:46.199Z,4.70
2022-12-25T20:41:31.454Z,4.69
2022-12-25T20:43:58.738Z,4.67
2022-12-25T20:46:27.586Z,4.65
2022-12-25T20:48:55.028Z,4.64
2022-12-25T20:51:24.874Z,4.63
2022-12-25T20:53:53.137Z,4.64
2022-12-25T20:56:22.848Z,4.65
2022-12-25T20:58:58.310Z,4.66
2022-12-25T21:01:29.204Z,4.65
2022-12-25T21:03:57.221Z,4.67
2022-12-25T21:06:24.925Z,4.69
2022-12-25T21:08:52.044Z,4.69
2022-12-25T21:11:21.472Z,4.68
2022-12-25T21:13:49.164Z,4.65
2022-12-25T21:16:20.381Z,4.65
2022-12-25T21:18:49.200Z,4.65
2022-12-25T21:21:16.537Z,4.65
2022-12-25T21:23:44.072Z,4.65
2022-12-25T21:26:23.076Z,4.66
2022-12-25T21:28:52.704Z,4.70
2022-12-25T21:31:20.859Z,4.71
2022-12-25T21:33:53.807Z,4.69
2022-12-25T21:36:25.301Z,4.69
2022-12-25T21:38:57.638Z,4.68
2022-12-25T21:41:25.940Z,4.68
2022-12-25T21:43:53.810Z,4.71
2022-12-25T21:46:21.603Z,4.72
2022-12-25T21:48:49.207Z,4.76
2022-12-25T21:51:40.935Z,4.77
2022-12-25T21:54:08.978Z,4.78
2022-12-25T21:56:43.622Z,4.78
2022-12-25T21:59:15.599Z,4.79
2022-12-25T22:01:43.209Z,4.80
2022-12-25T22:04:11.699Z,4.79
2022-12-25T22:06:57.894Z,4.78
2022-12-25T22:09:25.284Z,4.80
2022-12-25T22:12:10.955Z,4.82
2022-12-25T22:14:54.061Z,4.82
2022-12-25T22:17:48.109Z,4.81
2022-12-25T22:20:22.072Z,4.83
2022-12-25T22:22:49.423Z,4.84
2022-12-25T22:25:17.504Z,4.84
2022-12-25T22:27:46.694Z,4.85
2022-12-25T22:30:21.956Z,4.84
2022-12-25T22:32:49.494Z,4.83
2022-12-25T22:35:17.286Z,4.81
2022-12-25T22:37:44.594Z,4.80
2022-12-25T22:40:16.270Z,4.79
2022-12-25T22:42:43.653Z,4.78
2022-12-25T22:45:12.062Z,4.80
2022-12-25T22:47:39.466Z,4.82
2022-12-25T22:50:07.072Z,4.83
2022-12-25T22:52:34.307Z,4.84
2022-12-25T22:55:02.600Z,4.82
2022-12-25T22:57:29.811Z,4.82
2022-12-25T22:59:57.090Z,4.85
2022-12-25T23:02:24.416Z,4.86
2022-12-25T23:04:51.728Z,4.85
2022-12-25T23:07:19.122Z,4.86
2022-12-25T23:09:46.559Z,4.88
2022-12-25T23:12:33.736Z,4.89
2022-12-25T23:15:00.906Z,4.89
2022-12-25T23:17:46.624Z,4.88
2022-12-25T23:20:33.523Z,4.84
2022-12-25T23:23:19.623Z,4.81
2022-12-25T23:26:05.372Z,4.82
2022-12-25T23:28:51.095Z,4.83
2022-12-25T23:31:20.743Z,4.84
2022-12-25T23:33:48.014Z,4.83
2022-12-25T23:36:15.211Z,4.81
2022-12-25T23:38:42.391Z,4.79
2022-12-25T23:41:09.542Z,4.79
2022-12-25T23:43:36.731Z,4.79
2022-12-25T23:46:04.038Z,4.83
2022-12-25T23:48:31.354Z,4.86
2022-12-25T23:51:03.953Z,4.87
2022-12-25T23:53:32.000Z,4.89
2022-12-25T23:55:59.865Z,4.89
2022-12-25T23:58:28.500Z,4.87
